Time;durP1;ratioP1;P1;durP2;ratioP2;P2;SDS_P1;SDS_P2;PMS_P1;PMS_P2;Temp;Humidity;BMP_temperature;BMP_pressure;BME280_temperature;BME280_humidity;BME280_pressure;Samples;Min_cycle;Max_cycle;Signal;HPM_P1;HPM_P2
2021/11/18 00:01:19;;;;;;;16.42;5.35;;;;;;;10.24;62.77;102584.38;4990047;28;124157;-70
2021/11/18 00:03:47;;;;;;;14.52;5.53;;;;;;;10.22;62.85;102580.88;4991503;28;119880;-70
2021/11/18 00:06:15;;;;;;;14.88;5.20;;;;;;;10.23;62.86;102581.78;4991628;28;118727;-70
2021/11/18 00:08:44;;;;;;;20.17;5.55;;;;;;;10.23;62.94;102582.63;4996901;28;124260;-69
2021/11/18 00:11:14;;;;;;;11.80;5.05;;;;;;;10.23;62.86;102582.63;4991628;28;123911;-69
2021/11/18 00:13:45;;;;;;;13.60;5.00;;;;;;;10.23;62.81;102577.34;4988091;28;120247;-70
2021/11/18 00:16:13;;;;;;;17.35;6.18;;;;;;;10.21;63.08;102579.16;4991202;28;120051;-70
2021/11/18 00:18:41;;;;;;;13.43;5.35;;;;;;;10.21;62.90;102573.84;4986513;28;124447;-70
2021/11/18 00:21:16;;;;;;;13.85;5.55;;;;;;;10.20;62.85;102572.06;4983949;28;123793;-69
2021/11/18 00:23:50;;;;;;;13.20;5.50;;;;;;;10.20;62.94;102576.50;4989958;28;119128;-70
2021/11/18 00:26:19;;;;;;;17.77;6.07;;;;;;;10.18;63.31;102579.19;4994861;28;118867;-69
2021/11/18 00:28:46;;;;;;;16.40;6.53;;;;;;;10.19;62.82;102586.25;4992896;28;122986;-69
2021/11/18 00:31:16;;;;;;;13.63;5.22;;;;;;;10.18;63.12;102581.81;4994441;28;123127;-69
2021/11/18 00:33:44;;;;;;;16.52;6.35;;;;;;;10.18;62.93;102589.78;4989919;28;119102;-70
2021/11/18 00:36:13;;;;;;;13.45;5.32;;;;;;;10.16;63.13;102602.16;4989607;28;118022;-70
2021/11/18 00:38:42;;;;;;;15.70;6.15;;;;;;;10.15;62.86;102610.97;4992171;28;123430;-70
2021/11/18 00:41:11;;;;;;;11.48;5.40;;;;;;;10.15;63.11;102610.97;4988145;28;124156;-70
2021/11/18 00:43:39;;;;;;;12.38;5.30;;;;;;;10.17;62.85;102619.81;4991813;28;118743;-70
2021/11/18 00:46:08;;;;;;;15.20;5.25;;;;;;;10.16;63.00;102623.34;4990668;28;119320;-70
2021/11/18 00:48:36;;;;;;;16.13;6.18;;;;;;;10.14;63.04;102620.72;4987343;28;124301;-69
2021/11/18 00:51:06;;;;;;;14.52;5.85;;;;;;;10.14;63.16;102614.53;4988558;28;122627;-70
2021/11/18 00:53:37;;;;;;;13.95;5.30;;;;;;;10.12;62.88;102605.75;4992876;28;117409;-70
2021/11/18 00:56:05;;;;;;;13.70;5.35;;;;;;;10.12;63.06;102632.22;4995007;28;119869;-69
2021/11/18 00:58:33;;;;;;;14.50;5.30;;;;;;;10.10;62.91;102634.03;4992052;28;124863;-69
2021/11/18 01:01:00;;;;;;;16.52;5.47;;;;;;;10.09;63.14;102626.97;4994449;28;123894;-69
2021/11/18 01:03:30;;;;;;;19.25;5.72;;;;;;;10.08;62.79;102630.53;4986112;28;121408;-70
2021/11/18 01:05:58;;;;;;;16.00;5.82;;;;;;;10.07;62.83;102623.47;4989377;28;119682;-70
2021/11/18 01:08:25;;;;;;;16.20;5.45;;;;;;;10.06;62.94;102616.44;4990842;28;123465;-69
2021/11/18 01:11:02;;;;;;;16.63;5.75;;;;;;;10.05;62.75;102609.38;4988416;28;123203;-69
2021/11/18 01:13:30;;;;;;;17.60;5.47;;;;;;;10.03;62.91;102611.19;4989906;28;118683;-69
2021/11/18 01:15:58;;;;;;;12.57;5.47;;;;;;;10.01;63.07;102607.69;4990891;28;119342;-69
2021/11/18 01:18:25;;;;;;;12.77;5.82;;;;;;;10.01;63.04;102605.03;4973785;28;123375;-69
2021/11/18 01:20:57;;;;;;;16.35;6.60;;;;;;;10.02;62.93;102609.41;4997343;28;122936;-69
2021/11/18 01:23:30;;;;;;;12.60;5.40;;;;;;;9.99;63.16;102598.91;4988491;28;119078;-69
2021/11/18 01:25:57;;;;;;;16.75;5.68;;;;;;;9.99;62.86;102598.91;4993591;28;118329;-69
2021/11/18 01:28:26;;;;;;;13.85;5.68;;;;;;;9.97;63.14;102600.69;4989355;28;123359;-69
2021/11/18 01:30:54;;;;;;;14.00;6.00;;;;;;;9.96;62.96;102604.22;4987443;28;122739;-69
2021/11/18 01:33:26;;;;;;;20.08;5.50;;;;;;;9.94;63.05;102612.16;4990860;28;118586;-69
2021/11/18 01:35:56;;;;;;;15.65;5.82;;;;;;;9.94;63.17;102602.47;5003157;27;117657;-69
2021/11/18 01:38:25;;;;;;;15.18;6.25;;;;;;;9.95;63.10;102613.94;4992318;28;123471;-69
2021/11/18 01:41:13;;;;;;;15.00;6.25;;;;;;;9.93;62.87;102611.31;4998151;28;122952;-69
2021/11/18 01:43:48;;;;;;;11.35;5.97;;;;;;;9.95;62.96;102613.94;4990193;28;122485;-69
2021/11/18 01:46:20;;;;;;;19.38;6.18;;;;;;;9.93;62.89;102616.59;4987925;28;119149;-69
2021/11/18 01:48:50;;;;;;;15.45;6.20;;;;;;;9.91;63.27;102618.41;4990739;28;123086;-69
2021/11/18 01:51:23;;;;;;;14.60;6.35;;;;;;;9.93;63.24;102627.19;5001471;28;122934;-69
2021/11/18 01:53:50;;;;;;;15.20;6.07;;;;;;;9.91;62.83;102628.97;4973677;28;119432;-69
2021/11/18 01:56:22;;;;;;;15.70;6.18;;;;;;;9.92;62.98;102649.25;4993163;28;119168;-69
2021/11/18 01:58:55;;;;;;;18.40;6.25;;;;;;;9.92;63.14;102651.88;4994028;28;125959;-69
2021/11/18 02:01:38;;;;;;;17.98;6.38;;;;;;;9.91;62.95;102644.88;4981585;28;123076;-69
2021/11/18 02:04:16;;;;;;;17.45;5.93;;;;;;;9.89;62.94;102641.38;4998116;28;118421;-69
2021/11/18 02:06:58;;;;;;;18.33;6.00;;;;;;;9.89;63.25;102646.66;5011476;27;118073;-69
2021/11/18 02:09:28;;;;;;;13.15;6.38;;;;;;;9.87;63.17;102648.44;5000277;28;124816;-69
2021/11/18 02:12:03;;;;;;;;;;;;;;;9.84;62.96;102651.13;4995737;28;126101;-69
2021/11/18 02:14:31;;;;;;;14.65;6.32;;;;;;;9.85;63.11;102660.81;5005807;28;118768;-69
2021/11/18 02:17:01;;;;;;;15.05;5.78;;;;;;;9.86;62.68;102656.41;4999232;28;118068;-69
2021/11/18 02:19:38;;;;;;;16.88;6.20;;;;;;;9.83;62.73;102657.31;5014647;27;123368;-69
2021/11/18 02:22:09;;;;;;;15.57;6.13;;;;;;;9.82;62.93;102639.69;4995177;28;123377;-69
2021/11/18 02:24:49;;;;;;;14.85;6.28;;;;;;;9.81;63.03;102643.22;5003724;28;118802;-69
2021/11/18 02:27:21;;;;;;;16.27;6.28;;;;;;;9.80;62.91;102636.19;4995440;28;119359;-69
2021/11/18 02:29:51;;;;;;;15.73;6.78;;;;;;;9.78;63.13;102640.63;4996321;28;123201;-69
2021/11/18 02:32:23;;;;;;;16.83;6.35;;;;;;;9.78;63.03;102643.28;4989455;28;122401;-69
2021/11/18 02:34:57;;;;;;;20.65;6.60;;;;;;;9.76;62.69;102639.78;4997313;28;118913;-69
2021/11/18 02:37:26;;;;;;;14.10;6.13;;;;;;;9.74;63.17;102646.84;4993614;28;118137;-68
2021/11/18 02:39:55;;;;;;;17.05;6.78;;;;;;;9.71;62.92;102637.16;4995095;28;123171;-69
2021/11/18 02:42:24;;;;;;;16.63;6.85;;;;;;;9.70;62.80;102639.81;4992884;28;122942;-69
2021/11/18 02:44:53;;;;;;;14.43;6.90;;;;;;;9.69;63.14;102638.09;4991513;28;119659;-69
2021/11/18 02:47:20;;;;;;;19.95;7.00;;;;;;;9.67;63.08;102639.88;5001096;27;119525;-69
2021/11/18 02:49:52;;;;;;;17.02;6.80;;;;;;;9.66;63.07;102638.13;4993587;28;124279;-69
2021/11/18 02:52:27;;;;;;;17.27;6.55;;;;;;;9.64;63.18;102640.78;4978586;28;123017;-69
2021/11/18 02:55:02;;;;;;;17.65;6.80;;;;;;;9.64;62.88;102650.50;4991886;28;118379;-69
2021/11/18 02:57:29;;;;;;;19.83;7.00;;;;;;;9.62;63.06;102636.41;4987440;28;118982;-69
2021/11/18 02:59:57;;;;;;;16.35;6.55;;;;;;;9.62;62.94;102637.28;4991039;28;123176;-69
2021/11/18 03:02:24;;;;;;;20.52;7.05;;;;;;;9.62;62.79;102647.00;4993429;28;123007;-69
2021/11/18 03:04:53;;;;;;;18.75;6.95;;;;;;;9.61;62.89;102653.19;4992965;28;118430;-69
2021/11/18 03:07:20;;;;;;;17.63;6.53;;;;;;;9.61;63.05;102655.84;4993216;28;117949;-69
2021/11/18 03:09:47;;;;;;;18.23;6.60;;;;;;;9.61;63.22;102645.25;4986491;28;124153;-69
2021/11/18 03:12:18;;;;;;;19.27;6.88;;;;;;;9.60;62.97;102648.78;4990993;28;123804;-69
2021/11/18 03:14:46;;;;;;;17.30;6.60;;;;;;;9.60;63.13;102643.50;4988895;28;118474;-69
2021/11/18 03:17:14;;;;;;;17.90;6.57;;;;;;;9.59;63.30;102654.94;4992640;28;118106;-69
2021/11/18 03:20:08;;;;;;;16.73;6.80;;;;;;;9.59;63.14;102662.88;4990706;28;122932;-69
2021/11/18 03:22:38;;;;;;;15.13;6.82;;;;;;;9.58;63.20;102651.44;5012689;27;122904;-69
2021/11/18 03:25:06;;;;;;;16.83;6.78;;;;;;;9.59;63.13;102641.72;4991628;28;119036;-69
2021/11/18 03:27:35;;;;;;;16.45;6.75;;;;;;;9.60;63.36;102638.19;4993108;28;119394;-69
2021/11/18 03:30:08;;;;;;;22.45;7.20;;;;;;;9.61;63.28;102634.69;4990544;28;123745;-69
2021/11/18 03:32:38;;;;;;;17.80;6.95;;;;;;;9.61;63.52;102645.25;4990876;28;124098;-69
2021/11/18 03:35:07;;;;;;;18.50;7.05;;;;;;;9.64;63.46;102664.59;4989640;28;119249;-69
2021/11/18 03:37:35;;;;;;;17.92;6.63;;;;;;;9.65;63.30;102652.25;4994297;28;119579;-70
2021/11/18 03:40:05;;;;;;;20.33;7.03;;;;;;;9.66;63.46;102654.91;4993159;28;123187;-69
2021/11/18 03:42:32;;;;;;;18.25;7.43;;;;;;;9.69;63.69;102656.63;4975966;28;123082;-69
2021/11/18 03:44:59;;;;;;;21.65;6.90;;;;;;;9.71;63.70;102657.47;4992808;28;118158;-69
2021/11/18 03:47:26;;;;;;;20.48;7.07;;;;;;;9.73;63.34;102655.69;5004540;28;117957;-69
2021/11/18 03:49:55;;;;;;;16.48;7.18;;;;;;;9.76;63.36;102663.59;4993900;28;124262;-70
2021/11/18 03:52:23;;;;;;;18.75;7.78;;;;;;;9.76;63.39;102663.59;4997039;28;122968;-69
2021/11/18 03:54:52;;;;;;;14.85;7.18;;;;;;;9.79;63.36;102663.53;4988328;28;118419;-70
2021/11/18 03:57:20;;;;;;;13.40;7.30;;;;;;;9.81;63.63;102669.69;5004110;28;118502;-69
2021/11/18 03:59:57;;;;;;;17.17;7.68;;;;;;;9.83;63.71;102673.22;4993262;28;123407;-70
2021/11/18 04:02:26;;;;;;;20.92;7.13;;;;;;;9.86;63.78;102672.28;4989511;28;122949;-70
2021/11/18 04:04:59;;;;;;;19.67;7.20;;;;;;;9.88;63.45;102676.66;4989629;28;118468;-69
2021/11/18 04:07:33;;;;;;;17.73;7.85;;;;;;;9.91;63.71;102676.63;4990599;28;121407;-70
2021/11/18 04:10:00;;;;;;;18.27;7.68;;;;;;;9.94;63.43;102673.03;4989187;28;125312;-69
2021/11/18 04:12:30;;;;;;;15.73;6.90;;;;;;;9.96;63.55;102678.31;4992589;28;123597;-69
2021/11/18 04:14:57;;;;;;;19.77;7.72;;;;;;;9.98;63.43;102676.53;4988695;28;118506;-70
2021/11/18 04:17:24;;;;;;;14.82;6.80;;;;;;;10.00;63.42;102680.03;4993622;28;118162;-70
2021/11/18 04:19:51;;;;;;;18.45;7.63;;;;;;;10.02;63.73;102672.94;4992022;28;123352;-70
2021/11/18 04:22:18;;;;;;;23.90;8.48;;;;;;;10.03;63.67;102674.72;4995991;28;123706;-70
2021/11/18 04:24:47;;;;;;;20.08;7.75;;;;;;;10.04;63.47;102671.16;4995555;28;119767;-69
2021/11/18 04:27:14;;;;;;;22.02;7.72;;;;;;;10.05;63.56;102672.91;4996073;28;119464;-69
2021/11/18 04:29:42;;;;;;;18.33;6.55;;;;;;;10.08;63.82;102670.25;4991400;28;123051;-69
2021/11/18 04:32:15;;;;;;;20.10;8.20;;;;;;;10.08;63.49;102672.88;4991154;28;122767;-69
2021/11/18 04:34:47;;;;;;;20.58;8.07;;;;;;;10.09;63.65;102674.63;5002820;28;121855;-69
2021/11/18 04:37:17;;;;;;;18.45;7.20;;;;;;;10.10;63.47;102665.78;4993608;28;118358;-69
2021/11/18 04:39:45;;;;;;;24.08;7.90;;;;;;;10.11;63.33;102667.53;4991669;28;123332;-70
2021/11/18 04:42:15;;;;;;;21.17;7.93;;;;;;;10.11;63.46;102667.53;4990113;28;123113;-69
2021/11/18 04:44:51;;;;;;;20.58;7.60;;;;;;;10.11;63.56;102667.53;4990912;28;118359;-69
2021/11/18 04:47:18;;;;;;;19.15;7.50;;;;;;;10.12;63.53;102674.59;4991522;28;118573;-69
2021/11/18 04:49:49;;;;;;;21.98;7.93;;;;;;;10.12;63.71;102674.59;4991331;28;123513;-69
2021/11/18 04:52:22;;;;;;;19.17;7.95;;;;;;;10.14;63.43;102672.78;5003056;28;122788;-69
2021/11/18 04:54:49;;;;;;;20.88;8.25;;;;;;;10.15;63.77;102679.81;5003674;28;119879;-69
2021/11/18 04:57:18;;;;;;;17.38;7.32;;;;;;;10.16;63.71;102681.59;4990004;28;118671;-69
2021/11/18 04:59:46;;;;;;;18.98;7.60;;;;;;;10.16;63.30;102686.88;4993925;28;123155;-69
2021/11/18 05:02:13;;;;;;;25.33;7.85;;;;;;;10.16;63.65;102681.59;4990575;28;123480;-69
2021/11/18 05:04:42;;;;;;;25.35;7.82;;;;;;;10.16;63.66;102668.34;4997462;28;118576;-69
2021/11/18 05:07:09;;;;;;;21.58;7.78;;;;;;;10.17;63.83;102667.47;4992048;28;120072;-69
2021/11/18 05:09:36;;;;;;;19.77;7.72;;;;;;;10.17;63.65;102667.47;4987429;28;123773;-69
2021/11/18 05:12:04;;;;;;;29.48;8.38;;;;;;;10.16;63.44;102660.41;4989740;28;124053;-69
2021/11/18 05:14:31;;;;;;;30.95;7.95;;;;;;;10.17;63.60;102659.53;4997184;28;119377;-70
2021/11/18 05:16:59;;;;;;;26.20;7.40;;;;;;;10.17;63.32;102672.75;4992896;28;119130;-69
2021/11/18 05:19:27;;;;;;;23.35;8.13;;;;;;;10.17;63.64;102672.75;4995339;28;123813;-70
2021/11/18 05:21:55;;;;;;;21.30;7.82;;;;;;;10.16;63.53;102660.41;4993338;28;123020;-69
2021/11/18 05:24:24;;;;;;;15.30;7.88;;;;;;;10.18;63.57;102668.34;4991664;28;119201;-70
2021/11/18 05:26:56;;;;;;;24.13;7.57;;;;;;;10.17;63.45;102672.75;4989396;28;118182;-70
2021/11/18 05:29:23;;;;;;;19.75;8.05;;;;;;;10.17;63.35;102664.81;5000122;27;123807;-70
2021/11/18 05:31:51;;;;;;;22.58;7.95;;;;;;;10.17;63.28;102666.56;4997379;28;123520;-69
2021/11/18 05:34:42;;;;;;;19.02;7.90;;;;;;;10.16;63.37;102649.81;4993213;28;120839;-70
2021/11/18 05:37:12;;;;;;;20.17;7.68;;;;;;;10.16;63.58;102655.13;4996760;28;118317;-70
2021/11/18 05:39:40;;;;;;;25.67;8.48;;;;;;;10.17;63.56;102662.19;4974668;28;123187;-70
2021/11/18 05:42:07;;;;;;;26.50;8.32;;;;;;;10.18;63.77;102669.19;4997102;28;123593;-69
2021/11/18 05:44:35;;;;;;;20.55;8.52;;;;;;;10.18;63.66;102669.19;4997976;28;119618;-70
2021/11/18 05:47:04;;;;;;;24.02;8.70;;;;;;;10.18;63.70;102663.91;4995035;28;117811;-70
2021/11/18 05:49:31;;;;;;;24.70;8.05;;;;;;;10.19;63.87;102660.38;4994947;28;123244;-69
2021/11/18 05:52:08;;;;;;;23.08;7.22;;;;;;;10.19;63.55;102660.38;4992235;28;126681;-69
2021/11/18 05:54:35;;;;;;;22.75;7.55;;;;;;;10.21;63.71;102653.28;4993849;28;119221;-69
2021/11/18 05:57:03;;;;;;;17.17;7.65;;;;;;;10.21;63.39;102653.28;4996124;28;118283;-69
2021/11/18 05:59:32;;;;;;;27.00;8.00;;;;;;;10.22;63.78;102660.31;4976393;28;123244;-69
2021/11/18 06:02:00;;;;;;;19.20;7.65;;;;;;;10.24;63.84;102658.50;4996130;28;123183;-69
2021/11/18 06:04:28;;;;;;;23.90;8.02;;;;;;;10.25;63.80;102665.56;4992130;28;119390;-69
2021/11/18 06:07:02;;;;;;;21.95;7.78;;;;;;;10.25;63.70;102670.88;4992932;28;122500;-70
2021/11/18 06:09:30;;;;;;;24.83;8.30;;;;;;;10.26;63.55;102666.44;4992694;28;124631;-70
2021/11/18 06:11:58;;;;;;;19.77;7.35;;;;;;;10.26;63.64;102677.91;4989321;28;123795;-69
2021/11/18 06:14:26;;;;;;;20.40;7.43;;;;;;;10.26;63.59;102675.25;4992681;28;118648;-69
2021/11/18 06:16:53;;;;;;;23.02;7.82;;;;;;;10.27;63.77;102669.06;4994882;28;117645;-69
2021/11/18 06:19:21;;;;;;;23.52;8.27;;;;;;;10.28;63.64;102670.84;4995991;27;123133;-69
2021/11/18 06:21:53;;;;;;;20.23;7.90;;;;;;;10.28;63.42;102660.25;4992990;28;124070;-70
2021/11/18 06:24:25;;;;;;;25.90;7.53;;;;;;;10.29;63.40;102666.41;4993194;28;121807;-69
2021/11/18 06:26:55;;;;;;;23.60;8.00;;;;;;;10.29;63.54;102672.56;5000103;28;118164;-69
2021/11/18 06:29:30;;;;;;;19.53;7.70;;;;;;;10.29;63.50;102669.94;5002748;28;123062;-70
2021/11/18 06:32:00;;;;;;;21.60;7.88;;;;;;;10.30;63.90;102669.06;5000055;28;123007;-69
2021/11/18 06:34:28;;;;;;;19.88;7.63;;;;;;;10.30;63.65;102674.38;5004170;28;118328;-69
2021/11/18 06:36:55;;;;;;;24.45;7.20;;;;;;;10.32;63.80;102685.81;4992058;28;119357;-69
2021/11/18 06:39:28;;;;;;;20.42;7.00;;;;;;;10.32;63.68;102693.75;4992388;28;123179;-70
2021/11/18 06:41:56;;;;;;;25.85;7.55;;;;;;;10.35;63.73;102697.25;4979807;28;122936;-70
2021/11/18 06:44:24;;;;;;;19.25;8.13;;;;;;;10.35;63.75;102702.56;4993227;28;118303;-70
2021/11/18 06:46:51;;;;;;;23.60;8.00;;;;;;;10.36;63.60;102699.00;4996181;28;118303;-69
2021/11/18 06:49:18;;;;;;;21.73;6.85;;;;;;;10.36;63.68;102699.00;4993740;28;123287;-70
2021/11/18 06:51:47;;;;;;;20.00;8.13;;;;;;;10.37;63.83;102690.16;4999071;28;123095;-69
2021/11/18 06:54:15;;;;;;;21.33;7.45;;;;;;;10.40;63.36;102684.84;4989655;28;119311;-69
2021/11/18 06:56:43;;;;;;;18.90;7.45;;;;;;;10.41;63.45;102708.63;4999314;28;120225;-70
2021/11/18 06:59:10;;;;;;;17.42;6.95;;;;;;;10.42;63.65;102709.53;4996158;28;123013;-69
2021/11/18 07:01:41;;;;;;;24.60;7.35;;;;;;;10.42;63.79;102714.81;4995704;28;123022;-69
2021/11/18 07:04:10;;;;;;;23.20;8.18;;;;;;;10.43;63.76;102716.56;5015040;27;119007;-69
2021/11/18 07:06:40;;;;;;;13.82;6.85;;;;;;;10.43;63.63;102724.50;4994717;28;118385;-70
2021/11/18 07:09:12;;;;;;;17.45;6.88;;;;;;;10.44;63.46;102726.28;4991954;28;123209;-70
2021/11/18 07:11:59;;;;;;;15.70;7.43;;;;;;;10.44;63.50;102713.03;4980939;28;122613;-69
2021/11/18 07:14:26;;;;;;;20.13;7.07;;;;;;;10.44;63.55;102707.72;4992950;28;118560;-69
2021/11/18 07:17:12;;;;;;;20.48;7.28;;;;;;;10.45;63.64;102709.47;4994605;28;119820;-70
2021/11/18 07:19:44;;;;;;;18.83;7.22;;;;;;;10.46;63.68;102712.09;4993545;28;123302;-69
2021/11/18 07:22:13;;;;;;;19.65;6.70;;;;;;;10.46;63.66;102716.53;4995693;28;121751;-69
2021/11/18 07:25:01;;;;;;;20.10;7.35;;;;;;;10.45;63.37;102720.97;5005455;28;120032;-69
2021/11/18 07:27:29;;;;;;;20.00;7.10;;;;;;;10.45;63.34;102714.75;4993642;28;118164;-69
2021/11/18 07:29:57;;;;;;;18.38;6.93;;;;;;;10.45;63.46;102714.75;4993995;28;123510;-69
2021/11/18 07:32:25;;;;;;;21.33;6.72;;;;;;;10.45;63.26;102720.06;4990411;28;123657;-70
2021/11/18 07:34:59;;;;;;;19.13;6.80;;;;;;;10.46;63.17;102716.53;4992611;28;118669;-69
2021/11/18 07:37:28;;;;;;;16.08;6.82;;;;;;;10.46;63.44;102722.69;4989562;28;118129;-69
2021/11/18 07:39:55;;;;;;;22.98;7.15;;;;;;;10.46;63.53;102732.41;4989845;28;123965;-69
2021/11/18 07:42:24;;;;;;;19.10;6.88;;;;;;;10.46;63.55;102737.72;4989576;28;123096;-69
2021/11/18 07:45:11;;;;;;;20.10;7.25;;;;;;;10.45;63.52;102741.25;5000286;28;121069;-69
2021/11/18 07:48:01;;;;;;;26.33;7.80;;;;;;;10.44;63.52;102742.16;4997306;28;121103;-69
2021/11/18 07:50:32;;;;;;;22.27;7.28;;;;;;;10.45;63.37;102751.84;4987978;28;123121;-69
2021/11/18 07:53:02;;;;;;;19.73;8.00;;;;;;;10.46;63.61;102753.63;4995347;28;123035;-69
2021/11/18 07:55:30;;;;;;;23.70;7.65;;;;;;;10.45;63.54;102757.16;4995171;28;118485;-70
2021/11/18 07:57:58;;;;;;;20.33;7.28;;;;;;;10.46;63.75;102753.63;4993993;28;118099;-71
2021/11/18 08:00:27;;;;;;;21.73;7.05;;;;;;;10.47;63.81;102750.94;5005057;28;124160;-70
2021/11/18 08:03:10;;;;;;;21.95;7.30;;;;;;;10.48;63.79;102751.81;4995921;28;123856;-70
2021/11/18 08:05:58;;;;;;;20.48;7.47;;;;;;;10.49;63.47;102758.84;5003210;28;120592;-69
2021/11/18 08:08:25;;;;;;;20.50;7.82;;;;;;;10.50;63.62;102771.22;4999192;28;118147;-70
2021/11/18 08:10:53;;;;;;;22.98;8.05;;;;;;;10.52;63.60;102769.41;4990008;27;124541;-70
2021/11/18 08:13:21;;;;;;;15.23;7.43;;;;;;;10.52;63.55;102777.38;4994468;28;123632;-70
2021/11/18 08:15:49;;;;;;;22.05;7.80;;;;;;;10.53;63.37;102765.88;4996060;28;119298;-70
2021/11/18 08:18:17;;;;;;;20.27;7.28;;;;;;;10.54;63.77;102757.03;4995825;28;118186;-70
2021/11/18 08:20:45;;;;;;;22.40;7.90;;;;;;;10.56;63.53;102739.31;4998146;28;123398;-70
2021/11/18 08:23:12;;;;;;;18.60;7.25;;;;;;;10.58;63.79;102740.19;4989816;28;122657;-70
2021/11/18 08:25:39;;;;;;;16.42;7.03;;;;;;;10.59;63.68;102749.88;4998422;28;119548;-70
2021/11/18 08:28:09;;;;;;;22.98;7.18;;;;;;;10.62;63.93;102751.59;5003782;28;118106;-70
2021/11/18 08:30:37;;;;;;;20.33;6.85;;;;;;;10.64;63.81;102763.97;5005171;28;123139;-70
2021/11/18 08:33:06;;;;;;;20.15;7.35;;;;;;;10.65;63.39;102765.69;4992333;28;123054;-70
2021/11/18 08:35:38;;;;;;;14.65;6.30;;;;;;;10.67;63.76;102763.91;4987748;28;123403;-70
2021/11/18 08:38:12;;;;;;;19.60;7.43;;;;;;;10.68;63.74;102765.66;4996269;28;119216;-70
2021/11/18 08:40:44;;;;;;;21.25;7.22;;;;;;;10.71;63.79;102764.72;5004840;28;123772;-70
2021/11/18 08:43:11;;;;;;;17.77;6.95;;;;;;;10.71;63.51;102755.00;5007154;28;122783;-70
2021/11/18 08:45:39;;;;;;;15.07;6.53;;;;;;;10.75;63.48;102749.66;5008383;28;118811;-70
2021/11/18 08:48:10;;;;;;;18.95;7.18;;;;;;;10.76;63.46;102746.13;5007947;28;118284;-69
2021/11/18 08:50:39;;;;;;;16.75;6.28;;;;;;;10.77;63.37;102743.44;5006303;28;123305;-70
2021/11/18 08:53:11;;;;;;;18.83;6.57;;;;;;;10.78;63.45;102739.88;5004308;28;123092;-70
2021/11/18 08:55:43;;;;;;;16.00;7.40;;;;;;;10.79;63.47;102738.09;4996783;28;118508;-70
2021/11/18 08:58:14;;;;;;;16.88;6.65;;;;;;;10.82;63.67;102740.72;4975442;28;117862;-70
2021/11/18 09:00:58;;;;;;;17.92;6.70;;;;;;;10.82;63.42;102730.97;4990453;28;123138;-70
2021/11/18 09:03:34;;;;;;;17.60;6.82;;;;;;;10.85;63.47;102740.66;5010041;28;123117;-71
2021/11/18 09:06:06;;;;;;;20.13;7.03;;;;;;;10.88;63.75;102735.31;5011453;28;118513;-70
2021/11/18 09:08:36;;;;;;;21.77;7.38;;;;;;;10.91;63.62;102746.75;4998485;28;118694;-70
2021/11/18 09:11:09;;;;;;;16.92;6.68;;;;;;;10.94;63.82;102745.81;4999550;28;124367;-70
2021/11/18 09:13:43;;;;;;;18.75;6.80;;;;;;;10.98;63.81;102747.53;4980750;28;126419;-70
2021/11/18 09:16:11;;;;;;;19.15;6.57;;;;;;;11.01;63.86;102747.47;4999464;28;119041;-70
2021/11/18 09:18:43;;;;;;;20.90;6.65;;;;;;;11.06;63.85;102756.22;4996480;28;118335;-70
2021/11/18 09:21:14;;;;;;;24.45;6.38;;;;;;;11.11;63.83;102766.75;5008593;28;123319;-70
2021/11/18 09:24:14;;;;;;;14.77;6.13;;;;;;;11.16;63.82;102761.38;4995716;28;123235;-70
2021/11/18 09:26:49;;;;;;;16.85;5.95;;;;;;;11.20;63.81;102752.47;5010144;28;119445;-70
2021/11/18 09:29:18;;;;;;;18.63;6.67;;;;;;;11.25;64.03;102766.53;5008893;28;120292;-69
2021/11/18 09:32:21;;;;;;;16.48;6.30;;;;;;;11.31;63.84;102782.34;5009968;28;124730;-70
2021/11/18 09:35:04;;;;;;;18.80;5.95;;;;;;;11.36;63.65;102780.50;4999215;28;122942;-70
2021/11/18 09:37:31;;;;;;;19.67;6.07;;;;;;;11.42;63.64;102785.69;5010810;28;118069;-70
2021/11/18 09:39:59;;;;;;;17.77;6.00;;;;;;;11.47;63.87;102783.84;4998132;28;118903;-69
2021/11/18 09:42:46;;;;;;;16.58;6.13;;;;;;;11.54;63.72;102791.69;5000183;28;123811;-70
2021/11/18 09:45:20;;;;;;;19.40;6.20;;;;;;;11.60;63.81;102791.56;4983080;28;123218;-69
2021/11/18 09:48:23;;;;;;;20.55;6.03;;;;;;;11.66;63.59;102794.13;5000885;28;118974;-70
2021/11/18 09:51:14;;;;;;;16.77;5.60;;;;;;;11.73;63.83;102806.38;4992350;28;118522;-69
2021/11/18 09:54:05;;;;;;;19.70;6.90;;;;;;;11.78;63.54;102809.81;4989131;28;123093;-69
2021/11/18 09:56:37;;;;;;;15.95;5.47;;;;;;;11.85;63.66;102814.13;4981795;28;122924;-70
2021/11/18 09:59:22;;;;;;;15.85;6.40;;;;;;;11.92;63.71;102816.69;5005693;28;118609;-69
2021/11/18 10:02:14;;;;;;;17.38;6.25;;;;;;;11.99;63.61;102810.34;5004082;28;117991;-70
2021/11/18 10:04:55;;;;;;;13.95;5.13;;;;;;;12.06;63.53;102815.50;5001491;28;123015;-70
2021/11/18 10:07:45;;;;;;;21.38;5.78;;;;;;;12.11;63.27;102810.13;5009975;28;123452;-70
2021/11/18 10:10:39;;;;;;;17.42;6.20;;;;;;;12.17;63.38;102807.34;5009606;28;118371;-70
2021/11/18 10:13:17;;;;;;;14.02;5.68;;;;;;;12.23;63.42;102801.91;4999426;28;118214;-70
2021/11/18 10:15:54;;;;;;;19.25;5.78;;;;;;;12.29;63.25;102795.59;4993067;28;123672;-70
2021/11/18 10:18:39;;;;;;;14.68;5.53;;;;;;;12.37;63.30;102793.63;5007990;28;124281;-70
2021/11/18 10:21:35;;;;;;;14.13;5.57;;;;;;;12.46;63.30;102781.94;5007168;28;119580;-70
2021/11/18 10:24:18;;;;;;;15.38;5.50;;;;;;;12.52;63.13;102786.25;5005545;28;120155;-70
2021/11/18 10:27:27;;;;;;;17.23;6.05;;;;;;;12.60;63.15;102779.84;4992527;28;124411;-70
2021/11/18 10:29:57;;;;;;;20.85;6.85;;;;;;;12.69;62.96;102788.53;5001886;28;122840;-70
2021/11/18 10:32:29;;;;;;;13.00;5.32;;;;;;;12.77;62.84;102781.25;5013348;28;120728;-70
2021/11/18 10:35:13;;;;;;;16.83;5.68;;;;;;;12.83;62.58;102773.13;4997550;28;119660;-70
2021/11/18 10:37:45;;;;;;;18.40;5.63;;;;;;;12.87;62.76;102766.84;5006604;28;124002;-70
2021/11/18 10:40:20;;;;;;;15.40;5.88;;;;;;;12.93;62.43;102766.69;4996022;28;123935;-70
2021/11/18 10:43:02;;;;;;;15.80;5.57;;;;;;;13.00;62.42;102765.63;5000522;28;119344;-70
2021/11/18 10:45:49;;;;;;;19.58;5.40;;;;;;;13.08;62.58;102764.56;5006374;28;118923;-69
2021/11/18 10:48:34;;;;;;;23.02;5.90;;;;;;;13.15;62.34;102760.84;5007388;28;124054;-69
2021/11/18 10:51:13;;;;;;;17.20;5.60;;;;;;;13.22;62.38;102768.63;4999280;28;124440;-69
2021/11/18 10:53:59;;;;;;;17.38;5.53;;;;;;;13.31;62.39;102772.88;5007635;28;119632;-69
2021/11/18 10:56:31;;;;;;;16.55;5.20;;;;;;;13.38;61.99;102766.47;5008145;28;119360;-69
2021/11/18 10:59:17;;;;;;;14.05;5.18;;;;;;;13.44;62.04;102763.66;5003866;28;126615;-69
2021/11/18 11:01:53;;;;;;;17.65;5.13;;;;;;;13.51;61.75;102760.84;5002241;28;124484;-70
2021/11/18 11:04:44;;;;;;;14.18;5.28;;;;;;;13.55;61.48;102765.16;4997902;28;118545;-70
2021/11/18 11:07:12;;;;;;;14.98;4.57;;;;;;;13.58;61.43;102759.75;5007677;28;119090;-69
2021/11/18 11:09:44;;;;;;;19.08;4.90;;;;;;;13.61;61.36;102749.88;5000014;28;123955;-69
2021/11/18 11:12:16;;;;;;;18.35;5.53;;;;;;;13.66;61.22;102741.78;4995280;28;122651;-69
2021/11/18 11:14:56;;;;;;;17.58;5.05;;;;;;;13.73;61.29;102748.69;4992488;28;120076;-69
2021/11/18 11:17:35;;;;;;;12.93;4.95;;;;;;;13.80;60.94;102749.38;4992480;28;120037;-69
2021/11/18 11:20:30;;;;;;;14.07;4.95;;;;;;;13.86;60.79;102745.66;4988981;28;124468;-69
2021/11/18 11:23:17;;;;;;;13.50;4.75;;;;;;;13.91;60.88;102743.75;4997694;28;124450;-69
2021/11/18 11:26:15;;;;;;;15.25;4.60;;;;;;;13.95;60.88;102742.75;5002391;28;119141;-69
2021/11/18 11:29:14;;;;;;;13.75;4.57;;;;;;;14.02;60.73;102747.00;4999990;28;119035;-69
2021/11/18 11:32:31;;;;;;;13.88;4.90;;;;;;;14.09;60.65;102735.25;4992066;28;123573;-69
2021/11/18 11:35:29;;;;;;;16.95;5.07;;;;;;;14.14;60.42;102735.09;4989514;28;123681;-70
2021/11/18 11:38:02;;;;;;;14.57;4.95;;;;;;;14.16;60.08;102736.78;4995867;28;119171;-70